createdAt,value
2022-10-05T00:03:29.068Z,31.75
2022-10-05T00:23:29.036Z,31.74
2022-10-05T00:43:29.024Z,31.72
2022-10-05T01:23:28.992Z,31.7
2022-10-05T01:43:28.966Z,31.69
2022-10-05T02:03:28.940Z,31.68
2022-10-05T02:23:28.916Z,31.65
2022-10-05T02:43:28.900Z,31.66
2022-10-05T03:03:28.911Z,31.66
2022-10-05T03:23:28.577Z,31.65
2022-10-05T03:43:28.831Z,31.64
2022-10-05T04:03:28.810Z,31.65
2022-10-05T04:23:28.783Z,31.63
2022-10-05T04:43:28.769Z,31.62
2022-10-05T05:03:28.801Z,31.61
2022-10-05T05:23:28.727Z,31.6
2022-10-05T05:43:28.073Z,31.59
2022-10-05T06:03:28.743Z,31.57
2022-10-05T06:23:28.650Z,31.56
2022-10-05T06:43:28.349Z,31.55
2022-10-05T07:03:28.597Z,31.54
2022-10-05T07:23:28.572Z,31.51
2022-10-05T08:03:28.548Z,31.45
2022-10-05T08:23:28.491Z,31.43
2022-10-05T08:43:31.722Z,31.39
2022-10-05T09:03:30.983Z,31.37
2022-10-05T09:23:28.140Z,31.34
2022-10-05T09:43:28.402Z,31.29
2022-10-05T10:03:28.415Z,31.25
2022-10-05T10:23:28.052Z,31.2
2022-10-05T10:43:28.279Z,31.17
2022-10-05T11:03:28.673Z,31.14
2022-10-05T11:23:28.213Z,31.09
2022-10-05T11:43:28.194Z,31.03
2022-10-05T12:03:28.017Z,30.99
2022-10-05T12:23:27.851Z,30.94
2022-10-05T12:43:28.084Z,30.87
2022-10-05T13:03:28.064Z,30.81
2022-10-05T13:23:28.024Z,30.77
2022-10-05T13:43:28.058Z,30.7
2022-10-05T14:03:27.998Z,30.63
2022-10-05T14:23:27.924Z,30.59
2022-10-05T14:43:27.890Z,30.52
2022-10-05T15:03:27.599Z,30.46
2022-10-05T15:23:27.836Z,30.42
2022-10-05T15:43:27.788Z,30.38
2022-10-05T16:03:27.758Z,30.33
2022-10-05T16:23:27.761Z,30.3
2022-10-05T16:43:27.432Z,30.28
2022-10-05T17:03:27.668Z,30.26
2022-10-05T17:23:27.641Z,30.25
2022-10-05T17:43:27.614Z,30.24
2022-10-05T18:03:27.550Z,30.24
2022-10-05T18:23:27.580Z,30.22
2022-10-05T18:43:27.520Z,30.21
2022-10-05T19:03:27.493Z,30.19
2022-10-05T19:23:27.802Z,30.18
2022-10-05T19:43:27.745Z,30.16
2022-10-05T20:03:27.407Z,30.15
2022-10-05T20:23:27.401Z,30.14
2022-10-05T20:43:27.340Z,30.13
2022-10-05T21:03:27.312Z,30.12
2022-10-05T21:23:27.267Z,30.11
2022-10-05T21:43:27.490Z,30.1
2022-10-05T22:03:27.279Z,30.09
2022-10-05T22:23:27.200Z,30.08
2022-10-05T22:43:27.155Z,30.08
2022-10-05T23:03:27.158Z,30.07
2022-10-05T23:23:27.105Z,30.06
2022-10-05T23:43:27.085Z,30.06
